createdAt,value
2018-12-19T06:47:46.712Z,8.40
2018-12-19T06:50:15.226Z,8.30
2018-12-19T06:52:43.764Z,8.17
2018-12-19T06:55:12.314Z,9.23
2018-12-19T06:57:40.889Z,7.93
2018-12-19T07:00:10.047Z,8.50
2018-12-19T07:02:38.662Z,8.87
2018-12-19T07:05:07.232Z,8.57
2018-12-19T07:07:35.802Z,8.80
2018-12-19T07:10:05.680Z,8.43
2018-12-19T07:12:34.226Z,10.13
2018-12-19T07:15:03.569Z,9.40
2018-12-19T07:17:32.105Z,10.17
2018-12-19T07:20:00.970Z,9.07
2018-12-19T07:22:29.519Z,9.10
2018-12-19T07:24:58.163Z,9.73
2018-12-19T07:27:26.692Z,9.10
2018-12-19T07:29:55.249Z,9.17
2018-12-19T07:32:23.847Z,8.93
2018-12-19T07:34:52.497Z,9.80
2018-12-19T07:37:21.027Z,9.37
2018-12-19T07:39:49.634Z,10.03
2018-12-19T07:42:18.144Z,9.50
2018-12-19T07:44:47.518Z,9.50
2018-12-19T07:47:16.209Z,9.67
2018-12-19T07:49:44.722Z,10.03
2018-12-19T07:52:13.234Z,9.47
2018-12-19T07:54:42.324Z,10.63
2018-12-19T07:57:10.868Z,10.60
2018-12-19T07:59:39.607Z,10.13
2018-12-19T08:02:08.148Z,10.07
2018-12-19T08:04:36.835Z,10.70
2018-12-19T08:07:05.387Z,10.30
2018-12-19T08:09:33.891Z,10.53
2018-12-19T08:12:02.410Z,10.77
2018-12-19T08:14:30.933Z,10.10
2018-12-19T08:16:59.427Z,11.00
2018-12-19T08:19:27.955Z,10.87
2018-12-19T08:21:56.503Z,10.60
2018-12-19T08:24:25.059Z,11.03
2018-12-19T08:26:54.106Z,10.50
2018-12-19T08:29:22.633Z,10.37
2018-12-19T08:31:51.263Z,10.50
2018-12-19T08:34:19.939Z,10.40
2018-12-19T08:36:48.687Z,10.97
2018-12-19T08:39:17.595Z,10.03
2018-12-19T08:41:46.658Z,10.83
2018-12-19T08:44:15.187Z,10.67
2018-12-19T08:46:43.767Z,10.80
2018-12-19T08:49:12.390Z,10.90
2018-12-19T08:51:40.944Z,10.60
2018-12-19T08:54:09.499Z,10.80
2018-12-19T08:56:38.038Z,10.80
2018-12-19T08:59:06.613Z,10.73
2018-12-19T09:01:35.383Z,10.60
2018-12-19T09:04:04.163Z,10.97
2018-12-19T09:06:32.686Z,10.17
2018-12-19T09:09:01.185Z,10.93
2018-12-19T09:11:29.803Z,10.50
2018-12-19T09:13:58.319Z,11.10
2018-12-19T09:16:26.840Z,11.23
2018-12-19T09:18:55.345Z,10.47
2018-12-19T09:21:23.921Z,11.43
2018-12-19T09:23:52.468Z,11.10
2018-12-19T09:26:20.992Z,12.13
2018-12-19T09:28:49.748Z,11.27
2018-12-19T09:31:18.303Z,11.77
2018-12-19T09:33:46.842Z,11.33
2018-12-19T09:36:15.513Z,11.70
2018-12-19T09:38:44.034Z,11.30
2018-12-19T09:41:12.701Z,11.13
2018-12-19T09:43:41.480Z,11.27
2018-12-19T09:46:09.990Z,11.40
2018-12-19T09:48:38.538Z,11.50
2018-12-19T09:51:07.083Z,11.43
2018-12-19T09:53:35.855Z,12.07
2018-12-19T09:56:04.414Z,10.97
2018-12-19T09:58:33.118Z,11.10
2018-12-19T10:01:05.270Z,12.33
2018-12-19T10:03:33.052Z,11.37
2018-12-19T10:06:01.596Z,11.40
2018-12-19T10:08:30.136Z,11.73
2018-12-19T10:10:58.673Z,11.30
2018-12-19T10:13:27.283Z,12.20
2018-12-19T10:15:55.890Z,12.10
2018-12-19T10:18:24.423Z,11.67
2018-12-19T10:20:53.009Z,12.73
2018-12-19T10:23:21.583Z,12.00
2018-12-19T10:25:54.372Z,11.10
2018-12-19T10:28:28.259Z,12.27
2018-12-19T10:30:56.799Z,11.80
2018-12-19T10:33:25.354Z,11.77
2018-12-19T10:35:54.058Z,11.67
2018-12-19T10:38:22.676Z,11.93
2018-12-19T10:40:51.240Z,11.67
2018-12-19T10:43:19.826Z,11.37
2018-12-19T10:45:48.652Z,11.57
2018-12-19T10:48:17.514Z,11.40
2018-12-19T10:50:46.058Z,11.53
2018-12-19T10:53:14.702Z,11.07
2018-12-19T10:55:43.853Z,11.93
2018-12-19T10:58:12.594Z,12.00
2018-12-19T11:00:46.533Z,12.40
2018-12-19T11:03:15.167Z,12.77
2018-12-19T11:05:43.713Z,13.20
2018-12-19T11:08:12.261Z,12.77
2018-12-19T11:10:41.653Z,12.47
2018-12-19T11:13:10.172Z,12.00
2018-12-19T11:15:38.706Z,12.70
2018-12-19T11:18:07.204Z,12.80
2018-12-19T11:20:35.718Z,11.90
2018-12-19T11:23:04.274Z,13.07
2018-12-19T11:25:32.890Z,13.40
2018-12-19T11:28:01.438Z,12.80
2018-12-19T11:30:29.988Z,13.53
2018-12-19T11:32:58.502Z,13.03
2018-12-19T11:35:27.094Z,14.93
2018-12-19T11:37:55.618Z,14.57
2018-12-19T11:40:24.475Z,14.33
2018-12-19T11:42:53.041Z,13.50
2018-12-19T11:45:21.563Z,14.47
2018-12-19T11:47:50.728Z,13.97
2018-12-19T11:50:19.249Z,14.30
2018-12-19T11:52:47.843Z,15.90
2018-12-19T11:55:16.366Z,15.43
2018-12-19T11:57:44.975Z,15.00
2018-12-19T12:00:13.517Z,16.13
2018-12-19T12:02:42.088Z,16.10
2018-12-19T12:05:10.689Z,16.77
2018-12-19T12:07:39.425Z,16.30
2018-12-19T12:10:09.128Z,17.07
2018-12-19T12:12:37.743Z,17.03
2018-12-19T12:15:07.326Z,16.80
2018-12-19T12:17:36.068Z,17.70
2018-12-19T12:20:06.569Z,18.03
2018-12-19T12:22:35.101Z,17.03
2018-12-19T12:25:04.786Z,17.97
2018-12-19T12:27:33.348Z,18.43
2018-12-19T12:30:02.005Z,18.43
2018-12-19T12:32:30.569Z,17.90
2018-12-19T12:34:59.149Z,18.93
2018-12-19T12:37:27.708Z,19.17
2018-12-19T12:39:56.222Z,18.23
2018-12-19T12:42:24.738Z,20.33
2018-12-19T12:44:53.401Z,18.93
2018-12-19T12:47:21.922Z,19.30
2018-12-19T12:49:50.484Z,18.20
2018-12-19T12:52:18.997Z,19.07
2018-12-19T12:54:47.528Z,18.07
2018-12-19T12:57:16.084Z,20.10
2018-12-19T12:59:44.636Z,19.03
2018-12-19T13:02:13.466Z,18.87
2018-12-19T13:04:42.153Z,18.50
2018-12-19T13:07:10.689Z,18.73
2018-12-19T13:09:39.407Z,18.47
2018-12-19T13:12:07.924Z,19.47
2018-12-19T13:14:36.606Z,19.03
2018-12-19T13:17:05.366Z,19.40
2018-12-19T13:19:33.920Z,18.53
2018-12-19T13:22:02.607Z,18.73
2018-12-19T13:24:31.125Z,18.33
2018-12-19T13:26:59.661Z,19.47
2018-12-19T13:29:28.408Z,18.80
2018-12-19T13:31:57.167Z,19.47
2018-12-19T13:34:25.751Z,18.33
2018-12-19T13:36:54.260Z,18.07
2018-12-19T13:39:22.773Z,18.27
2018-12-19T13:41:51.323Z,18.67
2018-12-19T13:44:19.862Z,18.63
2018-12-19T13:46:48.435Z,18.07
2018-12-19T13:49:16.941Z,18.40
2018-12-19T13:51:45.482Z,18.07
2018-12-19T13:54:14.055Z,18.70
2018-12-19T13:56:42.615Z,19.20
2018-12-19T13:59:11.684Z,18.67
2018-12-19T14:01:40.228Z,18.87
2018-12-19T14:04:08.842Z,19.47
2018-12-19T14:06:37.500Z,18.80
2018-12-19T14:09:07.790Z,18.60
2018-12-19T14:11:36.412Z,18.77
2018-12-19T14:14:05.148Z,17.70
2018-12-19T14:16:33.669Z,16.73
2018-12-19T14:19:03.303Z,17.13
2018-12-19T14:21:38.410Z,17.70
2018-12-19T14:24:06.952Z,15.77
2018-12-19T14:26:35.455Z,15.83
2018-12-19T14:29:04.019Z,16.07
2018-12-19T14:31:32.777Z,14.77
2018-12-19T14:34:01.334Z,14.73
2018-12-19T14:36:29.902Z,13.93
2018-12-19T14:38:58.476Z,13.03
2018-12-19T14:41:27.106Z,14.67
2018-12-19T14:43:55.786Z,14.40
2018-12-19T14:46:24.293Z,13.53
2018-12-19T14:48:52.973Z,13.20
2018-12-19T14:51:21.612Z,13.13
2018-12-19T14:53:50.138Z,11.93
2018-12-19T14:56:18.693Z,12.50
2018-12-19T14:58:47.260Z,12.10
2018-12-19T15:01:15.810Z,11.77
2018-12-19T15:03:44.346Z,11.27
2018-12-19T15:06:14.027Z,12.50
2018-12-19T15:08:42.570Z,11.93
2018-12-19T15:11:11.149Z,12.53
2018-12-19T15:13:39.713Z,11.87
2018-12-19T15:16:08.313Z,12.53
2018-12-19T15:18:36.852Z,12.27
2018-12-19T15:21:05.507Z,12.80
2018-12-19T15:23:34.031Z,11.90
2018-12-19T15:26:02.740Z,12.77
2018-12-19T15:28:31.307Z,12.17
2018-12-19T15:30:59.821Z,13.13
2018-12-19T15:33:28.413Z,13.10
2018-12-19T15:35:56.990Z,13.07
2018-12-19T15:38:25.566Z,13.23
2018-12-19T15:40:54.124Z,13.30
2018-12-19T15:43:22.704Z,12.77
2018-12-19T15:45:51.252Z,13.40
2018-12-19T15:48:19.829Z,12.53
2018-12-19T15:50:48.534Z,13.03
2018-12-19T15:53:17.070Z,12.73
2018-12-19T15:55:45.616Z,14.13
2018-12-19T15:58:14.176Z,13.33
2018-12-19T16:00:42.716Z,12.27
2018-12-19T16:03:11.258Z,12.53
2018-12-19T16:05:40.006Z,13.50
2018-12-19T16:08:08.598Z,12.40
2018-12-19T16:10:37.120Z,13.97
2018-12-19T16:13:05.823Z,12.60
2018-12-19T16:15:34.338Z,13.43
2018-12-19T16:18:02.895Z,13.47
2018-12-19T16:20:31.444Z,12.90
2018-12-19T16:22:59.992Z,12.87
2018-12-19T16:25:28.531Z,13.23
2018-12-19T16:27:57.300Z,13.60
2018-12-19T16:30:25.953Z,13.20
2018-12-19T16:32:54.463Z,12.87
2018-12-19T16:35:23.027Z,13.87
2018-12-19T16:37:51.593Z,14.33
2018-12-19T16:40:20.172Z,15.10
2018-12-19T16:42:48.770Z,14.23
2018-12-19T16:45:17.383Z,14.83
2018-12-19T16:47:45.945Z,14.87
2018-12-19T16:50:14.606Z,15.30
2018-12-19T16:52:43.238Z,15.40
2018-12-19T16:55:11.788Z,14.90
2018-12-19T16:57:40.374Z,15.03
2018-12-19T17:00:10.429Z,15.80
2018-12-19T17:02:39.012Z,15.40
2018-12-19T17:05:08.526Z,14.93
2018-12-19T17:07:37.163Z,15.20
2018-12-19T17:10:07.078Z,15.77
2018-12-19T17:12:35.691Z,14.93
2018-12-19T17:15:05.547Z,14.67
2018-12-19T17:17:34.195Z,15.77
2018-12-19T17:20:03.911Z,15.60
2018-12-19T17:22:32.451Z,14.97
2018-12-19T17:25:01.175Z,15.10
2018-12-19T17:27:29.767Z,15.97
2018-12-19T17:29:58.535Z,16.03
2018-12-19T17:32:33.838Z,15.13
2018-12-19T17:35:02.368Z,15.70
2018-12-19T17:37:30.938Z,14.70
2018-12-19T17:39:59.497Z,15.20
2018-12-19T17:42:28.084Z,14.43
2018-12-19T17:44:56.584Z,14.43
2018-12-19T17:47:25.172Z,13.57
2018-12-19T17:49:53.851Z,13.70
2018-12-19T17:52:22.386Z,14.13
2018-12-19T17:54:51.025Z,13.50
2018-12-19T17:57:19.596Z,12.40
2018-12-19T17:59:48.204Z,12.00
2018-12-19T18:02:16.885Z,12.07
2018-12-19T18:04:45.428Z,12.80
2018-12-19T18:07:13.971Z,12.73
2018-12-19T18:09:43.050Z,12.33
2018-12-19T18:12:11.584Z,12.80
2018-12-19T18:14:40.138Z,13.07
2018-12-19T18:17:09.301Z,12.63
2018-12-19T18:19:37.903Z,14.93
2018-12-19T18:22:06.606Z,13.30
2018-12-19T18:24:35.158Z,13.00
2018-12-19T18:27:03.700Z,12.97
2018-12-19T18:29:32.304Z,12.57
2018-12-19T18:32:00.837Z,12.53
2018-12-19T18:34:29.364Z,11.90
2018-12-19T18:36:57.917Z,11.80
2018-12-19T18:39:26.590Z,12.40
2018-12-19T18:41:55.345Z,11.87
2018-12-19T18:44:23.925Z,11.97
2018-12-19T18:46:52.486Z,13.03
2018-12-19T18:49:21.030Z,12.33
2018-12-19T18:51:50.164Z,11.97
2018-12-19T18:54:18.718Z,12.10
2018-12-19T18:56:47.451Z,11.80
2018-12-19T18:59:16.019Z,10.67
2018-12-19T19:01:44.735Z,11.40
2018-12-19T19:04:13.340Z,11.97
2018-12-19T19:06:41.892Z,12.00
2018-12-19T19:09:10.453Z,11.57
2018-12-19T19:11:39.155Z,11.73
2018-12-19T19:14:07.750Z,10.97
2018-12-19T19:16:36.432Z,11.00
2018-12-19T19:19:04.985Z,10.07
2018-12-19T19:21:33.547Z,11.23
2018-12-19T19:24:02.087Z,11.37
2018-12-19T19:26:32.364Z,10.77
2018-12-19T19:29:00.905Z,10.50
2018-12-19T19:31:29.490Z,10.17
2018-12-19T19:33:58.028Z,10.70
2018-12-19T19:36:26.631Z,10.43
2018-12-19T19:38:55.161Z,9.57
2018-12-19T19:41:23.749Z,10.70
2018-12-19T19:43:52.349Z,10.20
2018-12-19T19:46:20.923Z,10.43
2018-12-19T19:48:49.650Z,10.70
2018-12-19T19:51:18.230Z,10.43
2018-12-19T19:53:46.790Z,10.73
2018-12-19T19:56:15.450Z,10.90
2018-12-19T19:58:44.007Z,11.47
2018-12-19T20:01:12.592Z,10.83
2018-12-19T20:03:41.864Z,10.97
2018-12-19T20:06:10.388Z,11.40
2018-12-19T20:08:39.004Z,11.03
2018-12-19T20:11:14.265Z,10.97
2018-12-19T20:13:42.834Z,11.20
2018-12-19T20:16:11.391Z,12.07
2018-12-19T20:18:39.943Z,11.27
2018-12-19T20:21:08.456Z,11.27
2018-12-19T20:23:37.037Z,12.37
2018-12-19T20:26:05.825Z,11.03
2018-12-19T20:28:34.454Z,10.47
2018-12-19T20:31:03.090Z,11.53
2018-12-19T20:33:31.699Z,16.20
2018-12-19T20:36:00.251Z,11.57
2018-12-19T20:38:28.847Z,10.53
2018-12-19T20:40:57.739Z,10.53
2018-12-19T20:43:26.460Z,11.60
2018-12-19T20:45:55.082Z,11.87
2018-12-19T20:48:24.646Z,11.37
2018-12-19T20:50:53.252Z,10.70
2018-12-19T20:53:21.800Z,11.43
2018-12-19T20:55:50.640Z,11.13
2018-12-19T20:58:19.267Z,10.97
2018-12-19T21:00:47.996Z,10.40
2018-12-19T21:03:16.939Z,10.60
2018-12-19T21:05:45.523Z,10.07
2018-12-19T21:08:14.051Z,10.63
2018-12-19T21:10:42.680Z,11.27
2018-12-19T21:13:11.277Z,10.57
2018-12-19T21:15:39.818Z,10.10
2018-12-19T21:18:13.516Z,10.73
2018-12-19T21:20:42.425Z,10.10
2018-12-19T21:23:11.005Z,10.47
2018-12-19T21:25:39.571Z,11.10
2018-12-19T21:28:08.091Z,11.13
2018-12-19T21:30:36.647Z,11.03
2018-12-19T21:33:05.374Z,12.00
2018-12-19T21:35:34.122Z,11.17
2018-12-19T21:38:02.831Z,11.67
2018-12-19T21:40:31.420Z,10.97
2018-12-19T21:43:00.028Z,10.47
2018-12-19T21:45:28.651Z,10.70
2018-12-19T21:47:57.296Z,11.93
2018-12-19T21:50:25.932Z,11.10
2018-12-19T21:52:54.880Z,10.63
2018-12-19T21:55:23.492Z,10.10
2018-12-19T21:57:52.273Z,11.20
2018-12-19T22:00:30.661Z,10.53
2018-12-19T22:03:03.502Z,10.67
2018-12-19T22:05:32.166Z,10.97
2018-12-19T22:08:00.846Z,10.53
2018-12-19T22:10:29.628Z,10.77
2018-12-19T22:12:58.388Z,10.80
2018-12-19T22:15:27.179Z,10.97
2018-12-19T22:18:01.082Z,11.30
2018-12-19T22:20:29.791Z,10.40
2018-12-19T22:22:58.447Z,10.83
2018-12-19T22:25:27.099Z,10.47
2018-12-19T22:27:55.747Z,10.27
2018-12-19T22:30:24.397Z,11.17
2018-12-19T22:32:53.016Z,10.47
2018-12-19T22:35:21.807Z,10.97
2018-12-19T22:37:50.376Z,10.80
2018-12-19T22:40:18.969Z,11.17
2018-12-19T22:42:47.784Z,11.20
2018-12-19T22:45:16.422Z,9.70
2018-12-19T22:47:44.978Z,10.73
2018-12-19T22:50:13.680Z,11.00
2018-12-19T22:52:42.259Z,10.93
2018-12-19T22:55:11.049Z,10.90
2018-12-19T22:57:40.235Z,11.13
2018-12-19T23:00:16.764Z,10.80
2018-12-19T23:02:51.601Z,10.60
2018-12-19T23:05:52.687Z,10.47
2018-12-19T23:08:21.339Z,10.60
2018-12-19T23:10:50.009Z,10.77
2018-12-19T23:13:18.606Z,11.10
2018-12-19T23:15:47.299Z,10.97
2018-12-19T23:18:21.156Z,10.90
2018-12-19T23:20:49.802Z,10.70
2018-12-19T23:23:18.439Z,11.60
2018-12-19T23:25:47.019Z,11.83
2018-12-19T23:28:15.753Z,10.83
2018-12-19T23:30:44.457Z,10.77
2018-12-19T23:33:13.077Z,13.67
2018-12-19T23:35:41.644Z,16.33
2018-12-19T23:38:10.214Z,11.67
2018-12-19T23:40:38.851Z,11.10
2018-12-19T23:43:07.517Z,10.60
2018-12-19T23:45:36.159Z,10.10
2018-12-19T23:48:04.834Z,10.20
2018-12-19T23:50:33.459Z,9.67
2018-12-19T23:53:02.225Z,10.67
2018-12-19T23:55:31.192Z,10.43
2018-12-19T23:58:00.589Z,10.37
